Time;durP1;ratioP1;P1;durP2;ratioP2;P2;SDS_P1;SDS_P2;PMS_P1;PMS_P2;Temp;Humidity;BMP_temperature;BMP_pressure;BME280_temperature;BME280_humidity;BME280_pressure;Samples;Min_cycle;Max_cycle;Signal;HPM_P1;HPM_P2
2023/09/15 00:01:35;;;;;;;9.45;3.72;;;22.90;58.70;;;;;;5082403;28;20103;-52
2023/09/15 00:04:05;;;;;;;10.85;3.28;;;22.90;58.70;;;;;;5079431;28;20407;-50
2023/09/15 00:06:35;;;;;;;10.23;3.40;;;22.90;58.70;;;;;;5087253;28;20039;-52
2023/09/15 00:09:06;;;;;;;11.27;4.05;;;22.90;58.70;;;;;;5092188;28;20028;-48
2023/09/15 00:11:42;;;;;;;9.05;4.03;;;22.90;58.70;;;;;;5091797;28;20028;-55
2023/09/15 00:14:09;;;;;;;8.52;3.33;;;22.90;58.80;;;;;;5084853;28;20028;-54
2023/09/15 00:16:35;;;;;;;7.05;3.60;;;22.90;58.90;;;;;;5091974;28;20024;-55
2023/09/15 00:19:03;;;;;;;7.47;3.67;;;22.90;58.80;;;;;;5092028;28;20043;-55
2023/09/15 00:21:29;;;;;;;9.48;3.50;;;22.90;58.80;;;;;;5069033;28;20480;-54
2023/09/15 00:23:54;;;;;;;8.38;3.38;;;22.90;58.90;;;;;;5081291;28;20063;-52
2023/09/15 00:26:23;;;;;;;11.38;3.35;;;22.90;58.90;;;;;;5083838;28;20403;-51
2023/09/15 00:28:50;;;;;;;8.88;3.50;;;22.90;58.90;;;;;;5071713;28;20491;-49
2023/09/15 00:31:16;;;;;;;7.50;3.55;;;22.90;59.00;;;;;;5082418;28;20020;-54
2023/09/15 00:33:41;;;;;;;7.43;3.30;;;22.90;59.10;;;;;;5081455;28;20028;-55
2023/09/15 00:36:07;;;;;;;9.35;3.38;;;22.90;59.00;;;;;;5083617;28;20388;-55
2023/09/15 00:38:34;;;;;;;8.18;3.53;;;22.90;58.90;;;;;;5073846;28;20062;-50
2023/09/15 00:41:00;;;;;;;8.80;3.55;;;22.90;58.90;;;;;;5091547;28;20035;-54
2023/09/15 00:43:26;;;;;;;9.95;3.80;;;22.90;58.90;;;;;;5084062;28;20408;-54
2023/09/15 00:45:52;;;;;;;23.08;3.55;;;22.90;58.90;;;;;;5089487;28;20024;-49
2023/09/15 00:48:18;;;;;;;6.72;3.53;;;22.90;58.90;;;;;;5090889;28;20518;-49
2023/09/15 00:50:45;;;;;;;7.75;3.83;;;22.90;58.90;;;;;;5081899;28;20063;-54
2023/09/15 00:53:19;;;;;;;6.22;3.20;;;22.90;58.90;;;;;;5078040;28;20040;-55
2023/09/15 00:55:51;;;;;;;6.93;3.58;;;22.90;58.90;;;;;;5070573;28;20078;-48
2023/09/15 00:58:18;;;;;;;8.00;3.58;;;22.90;59.00;;;;;;5090720;28;20020;-55
2023/09/15 01:00:45;;;;;;;7.70;3.67;;;22.90;58.90;;;;;;5086931;28;20031;-55
2023/09/15 01:03:13;;;;;;;8.93;3.67;;;22.90;59.00;;;;;;5078537;28;20048;-55
2023/09/15 01:05:41;;;;;;;8.18;3.58;;;22.90;59.00;;;;;;5087269;28;20103;-52
2023/09/15 01:08:08;;;;;;;6.85;3.25;;;22.90;59.10;;;;;;5083299;28;20029;-55
2023/09/15 01:10:35;;;;;;;4.80;3.17;;;22.90;59.10;;;;;;5093015;28;20406;-54
2023/09/15 01:13:02;;;;;;;11.10;3.80;;;22.90;59.10;;;;;;5073306;28;20024;-49
2023/09/15 01:15:46;;;;;;;7.68;3.50;;;22.90;59.70;;;;;;5069001;28;20024;-52
2023/09/15 01:18:33;;;;;;;7.65;3.70;;;22.90;59.10;;;;;;5083944;28;20547;-53
2023/09/15 01:21:14;;;;;;;7.13;3.40;;;22.90;59.10;;;;;;5072000;28;20046;-51
2023/09/15 01:23:55;;;;;;;10.38;3.20;;;22.90;59.10;;;;;;5079623;28;20039;-51
2023/09/15 01:27:09;;;;;;;9.23;3.55;;;22.90;59.20;;;;;;5070524;28;20028;-55
2023/09/15 01:29:47;;;;;;;6.93;3.03;;;22.90;59.20;;;;;;4991243;28;20548;-55
2023/09/15 01:32:16;;;;;;;5.70;3.50;;;22.90;59.20;;;;;;5004235;28;20038;-55
2023/09/15 01:34:50;;;;;;;7.95;3.58;;;22.90;59.20;;;;;;5001527;28;20548;-55
2023/09/15 01:37:17;;;;;;;6.45;3.08;;;22.90;59.30;;;;;;5006858;28;20049;-54
2023/09/15 01:39:43;;;;;;;7.57;3.28;;;22.90;59.90;;;;;;5010719;28;20084;-56
2023/09/15 01:42:09;;;;;;;5.97;3.20;;;22.90;59.40;;;;;;5012565;28;20053;-54
2023/09/15 01:44:35;;;;;;;6.85;3.22;;;22.90;59.30;;;;;;5005692;28;20120;-55
2023/09/15 01:47:00;;;;;;;6.50;3.33;;;22.90;59.30;;;;;;5011836;28;20532;-55
2023/09/15 01:49:28;;;;;;;7.32;3.40;;;22.90;60.30;;;;;;4999395;28;20030;-55
2023/09/15 01:51:56;;;;;;;10.95;3.47;;;22.90;59.80;;;;;;5010399;28;20096;-54
2023/09/15 01:54:22;;;;;;;7.47;3.22;;;22.90;59.80;;;;;;4996082;28;20408;-55
2023/09/15 01:56:49;;;;;;;5.57;2.90;;;22.80;59.40;;;;;;5000578;28;20109;-52
2023/09/15 01:59:15;;;;;;;9.45;3.30;;;22.80;58.60;;;;;;5029167;28;20042;-53
2023/09/15 02:01:41;;;;;;;11.02;2.97;;;22.70;58.00;;;;;;5000142;28;20033;-54
2023/09/15 02:04:07;;;;;;;6.28;3.03;;;22.60;57.80;;;;;;5002132;28;20041;-50
2023/09/15 02:06:33;;;;;;;5.60;3.05;;;22.60;57.90;;;;;;5071631;28;20040;-53
2023/09/15 02:08:59;;;;;;;14.13;3.58;;;22.60;57.90;;;;;;5084337;28;20027;-55
2023/09/15 02:11:25;;;;;;;9.38;3.33;;;22.60;57.40;;;;;;5075908;28;20157;-51
2023/09/15 02:13:51;;;;;;;6.55;3.60;;;22.50;57.60;;;;;;5076217;28;20030;-50
2023/09/15 02:16:16;;;;;;;8.88;4.10;;;22.50;57.80;;;;;;5076435;28;20035;-53
2023/09/15 02:18:43;;;;;;;8.60;4.35;;;22.50;57.40;;;;;;5085371;28;20024;-55
2023/09/15 02:21:08;;;;;;;12.27;4.30;;;22.50;57.20;;;;;;5087778;28;20055;-55
2023/09/15 02:23:35;;;;;;;8.02;3.92;;;22.40;56.70;;;;;;5081732;28;20025;-51
2023/09/15 02:26:04;;;;;;;9.48;3.85;;;22.50;57.10;;;;;;5075564;28;20032;-50
2023/09/15 02:28:31;;;;;;;6.43;3.38;;;22.50;57.50;;;;;;5086100;28;20036;-52
2023/09/15 02:30:57;;;;;;;6.93;3.72;;;22.40;56.80;;;;;;5093496;28;20406;-52
2023/09/15 02:33:23;;;;;;;7.80;3.45;;;22.40;56.90;;;;;;5086269;28;20117;-55
2023/09/15 02:35:50;;;;;;;9.43;2.95;;;22.40;56.90;;;;;;5082600;28;20027;-55
2023/09/15 02:38:16;;;;;;;7.68;3.28;;;22.40;57.00;;;;;;5087559;28;20104;-55
2023/09/15 02:40:42;;;;;;;9.70;3.67;;;22.40;56.70;;;;;;5081588;28;20041;-51
2023/09/15 02:43:10;;;;;;;16.73;4.03;;;22.40;56.60;;;;;;5070924;28;20043;-52
2023/09/15 02:45:37;;;;;;;11.18;3.63;;;22.40;56.60;;;;;;5075885;28;20055;-50
2023/09/15 02:48:05;;;;;;;6.40;3.78;;;22.40;56.70;;;;;;5075358;28;20510;-53
2023/09/15 02:50:32;;;;;;;9.63;3.72;;;22.40;56.50;;;;;;5075800;28;20050;-49
2023/09/15 02:52:59;;;;;;;5.28;3.15;;;22.40;56.50;;;;;;5066400;28;20050;-52
2023/09/15 02:55:25;;;;;;;9.52;3.53;;;22.40;56.60;;;;;;5075750;28;20057;-49
2023/09/15 02:57:52;;;;;;;8.40;3.60;;;22.40;56.50;;;;;;5073593;28;20028;-50
2023/09/15 03:00:20;;;;;;;9.32;3.35;;;22.30;56.40;;;;;;5074895;28;20034;-50
2023/09/15 03:02:47;;;;;;;7.72;3.40;;;22.40;56.70;;;;;;5070228;28;20086;-52
2023/09/15 03:05:13;;;;;;;8.70;3.35;;;22.40;56.50;;;;;;5088335;28;20029;-48
2023/09/15 03:07:40;;;;;;;6.82;3.20;;;22.40;56.60;;;;;;5104658;28;20529;-51
2023/09/15 03:10:10;;;;;;;10.90;3.77;;;22.30;56.40;;;;;;5091571;28;20048;-49
2023/09/15 03:12:36;;;;;;;18.42;4.07;;;22.40;56.70;;;;;;5074195;28;20282;-48
2023/09/15 03:15:06;;;;;;;9.15;3.92;;;22.40;56.40;;;;;;5074532;28;20039;-50
2023/09/15 03:17:33;;;;;;;8.73;3.10;;;22.40;56.50;;;;;;5071191;28;20541;-52
2023/09/15 03:19:59;;;;;;;7.55;3.22;;;22.40;56.40;;;;;;5092745;28;20027;-50
2023/09/15 03:22:27;;;;;;;8.02;3.13;;;22.30;56.30;;;;;;5085771;28;20484;-49
2023/09/15 03:24:54;;;;;;;9.13;3.50;;;22.30;56.10;;;;;;5072919;28;20036;-52
2023/09/15 03:27:20;;;;;;;6.78;3.28;;;22.30;56.00;;;;;;5074599;28;20034;-56
2023/09/15 03:29:47;;;;;;;8.75;3.50;;;22.30;56.30;;;;;;5072835;28;20020;-56
2023/09/15 03:32:13;;;;;;;8.80;3.58;;;22.30;56.30;;;;;;5073824;28;20521;-55
2023/09/15 03:34:39;;;;;;;7.55;2.97;;;22.30;57.00;;;;;;5074539;28;20032;-57
2023/09/15 03:37:05;;;;;;;6.22;3.08;;;22.30;56.30;;;;;;5074893;28;20032;-52
2023/09/15 03:39:31;;;;;;;10.55;3.28;;;22.30;56.10;;;;;;5070404;28;20708;-49
2023/09/15 03:41:57;;;;;;;7.97;3.10;;;22.30;56.10;;;;;;5073414;28;20020;-52
2023/09/15 03:44:23;;;;;;;8.27;3.20;;;22.20;56.10;;;;;;5074544;28;20096;-52
2023/09/15 03:46:49;;;;;;;8.32;3.58;;;22.20;56.00;;;;;;5072515;28;20020;-52
2023/09/15 03:49:14;;;;;;;6.53;3.30;;;22.20;56.20;;;;;;5070427;28;20028;-52
2023/09/15 03:51:41;;;;;;;6.47;3.10;;;22.20;56.10;;;;;;5089176;28;20497;-55
2023/09/15 03:54:07;;;;;;;8.80;3.45;;;22.20;56.30;;;;;;5066372;28;20081;-53
2023/09/15 03:56:32;;;;;;;7.57;3.42;;;22.20;56.10;;;;;;5083756;28;20442;-49
2023/09/15 03:58:58;;;;;;;7.70;3.35;;;22.20;56.20;;;;;;5073003;28;20035;-50
2023/09/15 04:01:25;;;;;;;9.20;3.60;;;22.20;56.30;;;;;;5070195;28;20024;-51
2023/09/15 04:03:51;;;;;;;5.90;3.30;;;22.20;56.20;;;;;;5073227;28;20028;-50
2023/09/15 04:06:17;;;;;;;10.70;4.25;;;22.20;56.20;;;;;;5092297;28;20036;-52
2023/09/15 04:08:45;;;;;;;11.60;5.50;;;22.10;56.10;;;;;;5092208;28;20035;-52
2023/09/15 04:11:11;;;;;;;11.27;4.72;;;22.20;56.20;;;;;;5091014;28;20325;-50
2023/09/15 04:13:37;;;;;;;13.95;5.00;;;22.10;56.10;;;;;;5073465;28;20020;-51
2023/09/15 04:16:04;;;;;;;11.10;5.18;;;22.10;56.20;;;;;;5074013;28;20020;-53
2023/09/15 04:18:31;;;;;;;9.85;5.47;;;22.10;56.30;;;;;;5076660;28;20078;-56
2023/09/15 04:20:58;;;;;;;14.65;6.28;;;22.10;56.30;;;;;;5073727;28;20054;-55
2023/09/15 04:23:23;;;;;;;14.07;6.65;;;22.10;56.20;;;;;;5092017;28;20546;-56
2023/09/15 04:25:50;;;;;;;16.80;8.65;;;22.10;56.30;;;;;;5071499;28;20444;-56
2023/09/15 04:28:16;;;;;;;21.30;10.13;;;22.10;56.30;;;;;;5074194;28;20103;-54
2023/09/15 04:30:44;;;;;;;16.98;9.18;;;22.10;56.30;;;;;;5072670;28;20029;-57
2023/09/15 04:33:12;;;;;;;19.05;9.43;;;22.10;56.40;;;;;;5070023;28;20513;-55
2023/09/15 04:35:37;;;;;;;14.48;7.60;;;22.10;56.30;;;;;;5072958;28;20024;-56
2023/09/15 04:38:03;;;;;;;12.23;7.20;;;22.10;56.50;;;;;;5091694;28;20038;-51
2023/09/15 04:40:29;;;;;;;14.50;7.00;;;22.10;56.30;;;;;;5073768;28;20024;-56
2023/09/15 04:42:55;;;;;;;14.30;7.38;;;22.10;56.40;;;;;;5072540;28;20077;-55
2023/09/15 04:45:24;;;;;;;15.80;8.37;;;22.10;56.40;;;;;;5072809;28;20080;-53
2023/09/15 04:47:50;;;;;;;17.45;8.25;;;22.10;56.40;;;;;;5071002;28;20037;-55
2023/09/15 04:50:22;;;;;;;13.20;6.40;;;22.10;56.30;;;;;;5072638;28;20140;-49
2023/09/15 04:52:48;;;;;;;17.45;6.45;;;22.10;56.30;;;;;;5073240;28;20020;-53
2023/09/15 04:55:15;;;;;;;15.10;6.65;;;22.00;56.40;;;;;;5082287;28;20043;-48
2023/09/15 04:57:41;;;;;;;10.85;5.75;;;22.00;56.40;;;;;;5068130;28;20025;-48
2023/09/15 05:00:12;;;;;;;9.90;5.55;;;22.10;56.50;;;;;;5072681;28;20024;-51
2023/09/15 05:02:42;;;;;;;9.07;4.88;;;22.00;56.40;;;;;;5087768;28;20016;-49
2023/09/15 05:05:08;;;;;;;12.05;5.25;;;22.00;56.50;;;;;;5065660;28;20016;-52
2023/09/15 05:07:34;;;;;;;7.80;4.30;;;22.00;56.50;;;;;;5080847;28;20390;-53
2023/09/15 05:10:00;;;;;;;8.77;4.43;;;22.00;56.60;;;;;;5072378;28;20028;-51
2023/09/15 05:12:29;;;;;;;13.73;5.70;;;22.00;56.60;;;;;;5073319;28;20055;-52
2023/09/15 05:14:55;;;;;;;9.55;4.97;;;22.00;56.50;;;;;;5073303;28;20020;-53
2023/09/15 05:17:22;;;;;;;10.82;5.13;;;22.00;56.50;;;;;;5069588;28;20021;-53
2023/09/15 05:19:49;;;;;;;9.35;4.85;;;22.00;56.70;;;;;;5073563;28;20032;-51
2023/09/15 05:22:15;;;;;;;11.25;4.68;;;22.00;56.60;;;;;;5072300;28;20028;-56
2023/09/15 05:24:41;;;;;;;8.27;4.63;;;22.00;56.60;;;;;;5072453;28;20106;-56
2023/09/15 05:27:07;;;;;;;8.93;4.55;;;22.00;56.70;;;;;;5069383;28;20107;-52
2023/09/15 05:29:34;;;;;;;8.32;4.47;;;21.90;56.60;;;;;;5085895;28;20028;-51
2023/09/15 05:32:00;;;;;;;8.93;3.78;;;22.00;56.80;;;;;;5070858;28;20043;-55
2023/09/15 05:34:26;;;;;;;10.48;4.13;;;22.00;56.80;;;;;;5086337;22;20041;-46
2023/09/15 05:36:52;;;;;;;9.38;3.60;;;22.00;56.70;;;;;;5032072;28;20452;-46
2023/09/15 05:39:18;;;;;;;7.35;3.90;;;22.00;56.80;;;;;;5037614;28;20021;-53
2023/09/15 05:41:44;;;;;;;8.73;3.80;;;22.00;56.80;;;;;;5038812;28;20386;-54
2023/09/15 05:44:10;;;;;;;7.85;3.33;;;22.00;56.90;;;;;;5048127;28;20024;-46
2023/09/15 05:46:36;;;;;;;7.32;3.85;;;22.00;56.90;;;;;;5020171;28;20096;-51
2023/09/15 05:49:02;;;;;;;8.52;3.50;;;22.00;56.90;;;;;;5021936;28;20112;-50
2023/09/15 05:51:28;;;;;;;7.28;4.00;;;22.00;56.90;;;;;;5028082;28;20108;-54
2023/09/15 05:53:54;;;;;;;8.93;4.10;;;22.00;56.80;;;;;;5031052;28;20499;-49
2023/09/15 05:56:20;;;;;;;10.25;4.22;;;21.90;56.90;;;;;;5029332;28;20092;-51
2023/09/15 05:58:46;;;;;;;10.13;5.28;;;22.00;57.10;;;;;;5021592;28;20064;-53
2023/09/15 06:01:12;;;;;;;12.90;5.50;;;22.00;57.70;;;;;;5013305;28;20033;-50
2023/09/15 06:03:37;;;;;;;10.52;5.03;;;22.00;57.10;;;;;;5029764;28;20033;-50
2023/09/15 06:06:03;;;;;;;11.82;4.90;;;22.00;57.20;;;;;;5029554;28;20531;-49
2023/09/15 06:08:29;;;;;;;12.07;5.00;;;22.00;57.20;;;;;;5030268;28;20481;-49
2023/09/15 06:10:55;;;;;;;10.73;4.85;;;22.00;57.20;;;;;;5030722;28;20036;-48
2023/09/15 06:13:21;;;;;;;9.77;4.90;;;22.00;57.30;;;;;;5029916;28;20030;-49
2023/09/15 06:15:47;;;;;;;14.32;5.18;;;22.10;57.20;;;;;;5015483;28;20018;-47
2023/09/15 06:18:13;;;;;;;9.73;4.30;;;22.10;57.40;;;;;;5030944;28;20365;-46
2023/09/15 06:20:39;;;;;;;14.52;5.07;;;22.10;57.30;;;;;;5030528;28;20021;-52
2023/09/15 06:23:04;;;;;;;12.38;5.35;;;22.10;57.40;;;;;;5024671;28;20700;-49
2023/09/15 06:25:31;;;;;;;10.50;4.47;;;22.00;57.50;;;;;;5033368;28;20021;-50
2023/09/15 06:27:59;;;;;;;11.90;4.75;;;22.00;57.60;;;;;;5037687;28;20541;-51
2023/09/15 06:30:27;;;;;;;13.73;5.15;;;22.00;57.70;;;;;;5043943;28;20032;-53
2023/09/15 06:32:55;;;;;;;10.98;4.80;;;22.00;57.80;;;;;;5049114;28;20021;-52
2023/09/15 06:35:23;;;;;;;11.98;4.90;;;22.00;57.80;;;;;;5034283;28;20041;-52
2023/09/15 06:37:49;;;;;;;9.40;4.22;;;22.10;57.70;;;;;;5034132;28;20040;-53
2023/09/15 06:40:15;;;;;;;15.52;5.25;;;22.10;57.70;;;;;;5033192;28;20026;-50
2023/09/15 06:42:41;;;;;;;13.80;4.95;;;22.10;57.90;;;;;;5016144;28;20036;-52
2023/09/15 06:45:07;;;;;;;16.10;6.72;;;22.10;58.10;;;;;;5033190;28;20071;-54
2023/09/15 06:47:33;;;;;;;19.08;9.80;;;22.10;58.00;;;;;;5034087;28;20481;-50
2023/09/15 06:49:59;;;;;;;15.40;8.48;;;22.10;58.00;;;;;;5032811;28;20021;-53
2023/09/15 06:52:25;;;;;;;17.63;7.43;;;22.00;57.90;;;;;;5032793;28;20486;-52
2023/09/15 06:54:50;;;;;;;17.67;6.55;;;22.00;58.00;;;;;;5033361;28;20064;-53
2023/09/15 06:57:16;;;;;;;19.63;6.72;;;22.00;58.20;;;;;;5028202;28;20018;-53
2023/09/15 06:59:42;;;;;;;12.23;4.95;;;21.90;58.60;;;;;;5023555;28;20084;-52
2023/09/15 07:02:08;;;;;;;15.77;5.55;;;21.90;58.10;;;;;;5033388;28;20385;-49
2023/09/15 07:04:34;;;;;;;24.20;5.80;;;21.80;58.80;;;;;;5033573;28;20101;-55
2023/09/15 07:06:59;;;;;;;17.60;4.85;;;22.00;60.10;;;;;;5033678;28;20060;-51
2023/09/15 07:09:25;;;;;;;15.63;5.15;;;22.10;61.30;;;;;;5033542;28;20029;-54
2023/09/15 07:11:51;;;;;;;18.80;5.25;;;22.20;60.30;;;;;;5033220;28;20507;-53
2023/09/15 07:14:17;;;;;;;20.20;4.93;;;22.30;60.20;;;;;;5028723;28;20026;-49
2023/09/15 07:16:43;;;;;;;12.30;4.55;;;22.40;60.30;;;;;;5029827;28;20022;-53
2023/09/15 07:19:10;;;;;;;16.85;4.55;;;22.40;60.00;;;;;;5028439;28;20037;-52
2023/09/15 07:21:40;;;;;;;18.02;4.85;;;22.50;60.20;;;;;;5037947;28;20513;-51
2023/09/15 07:24:10;;;;;;;12.80;4.30;;;22.50;60.60;;;;;;5022441;28;20029;-51
2023/09/15 07:26:36;;;;;;;12.45;4.50;;;22.50;60.90;;;;;;5033586;28;20025;-53
2023/09/15 07:29:03;;;;;;;13.90;4.43;;;22.60;60.90;;;;;;5029119;28;20037;-50
2023/09/15 07:31:35;;;;;;;11.38;4.53;;;22.60;60.90;;;;;;5033447;28;20078;-54
2023/09/15 07:34:02;;;;;;;12.73;4.22;;;22.70;61.00;;;;;;5000731;28;20033;-53
2023/09/15 07:36:28;;;;;;;17.52;4.30;;;22.70;60.90;;;;;;5029098;28;20102;-55
2023/09/15 07:38:54;;;;;;;18.90;4.53;;;22.70;60.60;;;;;;5029264;28;20444;-54
2023/09/15 07:41:20;;;;;;;17.08;5.10;;;22.70;60.70;;;;;;5029286;28;20044;-52
2023/09/15 07:43:46;;;;;;;13.23;4.40;;;22.70;61.00;;;;;;5029772;28;20021;-50
2023/09/15 07:46:16;;;;;;;12.07;5.28;;;22.70;60.80;;;;;;5029369;28;20028;-53
2023/09/15 07:48:42;;;;;;;9.15;4.22;;;22.70;60.70;;;;;;5029576;28;20030;-56
2023/09/15 07:51:08;;;;;;;11.85;4.55;;;22.70;60.70;;;;;;5021464;28;20030;-55
2023/09/15 07:53:34;;;;;;;13.95;4.60;;;22.80;60.60;;;;;;5030770;28;20067;-54
2023/09/15 07:55:59;;;;;;;10.63;4.38;;;22.80;60.60;;;;;;5030035;28;20384;-54
2023/09/15 07:58:25;;;;;;;8.00;3.95;;;22.80;60.70;;;;;;5030063;28;20024;-55
2023/09/15 08:00:53;;;;;;;16.17;4.25;;;22.80;60.60;;;;;;5029217;28;20555;-54
2023/09/15 08:03:19;;;;;;;12.48;4.53;;;22.80;60.60;;;;;;5029729;28;20025;-55
2023/09/15 08:05:45;;;;;;;15.63;4.60;;;22.80;60.50;;;;;;5029928;28;20044;-50
2023/09/15 08:08:10;;;;;;;12.43;3.92;;;22.80;60.40;;;;;;5004421;28;20021;-52
2023/09/15 08:10:36;;;;;;;15.77;3.80;;;22.80;60.50;;;;;;5029399;28;20404;-49
2023/09/15 08:13:02;;;;;;;10.65;3.60;;;22.80;60.60;;;;;;5029467;28;20358;-52
2023/09/15 08:15:28;;;;;;;11.43;3.85;;;22.80;60.20;;;;;;5029985;28;20026;-55
2023/09/15 08:17:54;;;;;;;17.27;4.05;;;22.80;60.60;;;;;;5022142;28;20025;-52
2023/09/15 08:20:20;;;;;;;20.13;4.85;;;22.80;60.40;;;;;;5028832;28;20021;-52
2023/09/15 08:22:46;;;;;;;22.63;5.07;;;22.70;59.30;;;;;;5029474;28;20021;-52
2023/09/15 08:25:12;;;;;;;33.35;4.75;;;22.60;59.70;;;;;;5028472;28;20044;-49
2023/09/15 08:27:38;;;;;;;11.95;4.18;;;22.50;60.10;;;;;;5029741;28;20022;-47
2023/09/15 08:30:05;;;;;;;26.63;5.07;;;22.50;60.00;;;;;;5029965;28;20030;-55
2023/09/15 08:32:31;;;;;;;17.13;4.45;;;22.50;61.10;;;;;;5022110;28;20489;-52
2023/09/15 08:34:58;;;;;;;17.67;4.28;;;22.60;62.40;;;;;;5029792;28;20022;-55
2023/09/15 08:37:24;;;;;;;19.20;4.00;;;22.60;61.50;;;;;;5029654;28;20488;-50
2023/09/15 08:39:50;;;;;;;10.80;3.85;;;22.60;61.10;;;;;;5028711;28;20100;-47
2023/09/15 08:42:23;;;;;;;14.02;3.88;;;22.60;62.40;;;;;;5028980;28;20167;-52
2023/09/15 08:44:50;;;;;;;10.70;3.95;;;22.60;62.30;;;;;;5028047;28;20022;-49
2023/09/15 08:47:17;;;;;;;8.50;4.30;;;22.60;62.10;;;;;;5019945;28;20120;-52
2023/09/15 08:49:44;;;;;;;15.43;4.40;;;22.60;62.30;;;;;;5012243;28;20112;-53
2023/09/15 08:52:11;;;;;;;13.43;4.05;;;22.60;61.80;;;;;;5023333;28;20032;-52
2023/09/15 08:54:37;;;;;;;13.20;4.88;;;22.50;61.40;;;;;;5028834;28;20120;-50
2023/09/15 08:57:03;;;;;;;10.48;4.25;;;22.60;60.90;;;;;;5025733;28;20072;-55
2023/09/15 08:59:31;;;;;;;13.20;4.05;;;22.60;60.20;;;;;;5029955;28;20574;-53
2023/09/15 09:01:57;;;;;;;16.23;4.65;;;22.60;59.60;;;;;;5027230;28;20026;-55
2023/09/15 09:04:23;;;;;;;10.15;4.57;;;22.60;60.00;;;;;;5028732;28;20026;-55
2023/09/15 09:06:50;;;;;;;9.70;4.72;;;22.60;59.50;;;;;;5023450;28;20401;-53
2023/09/15 09:09:16;;;;;;;9.32;4.53;;;22.60;59.00;;;;;;5028706;28;20159;-56
2023/09/15 09:11:42;;;;;;;12.35;4.45;;;22.60;58.80;;;;;;5025778;28;20030;-55
2023/09/15 09:14:12;;;;;;;12.85;3.95;;;22.70;58.80;;;;;;5022092;28;20408;-51
2023/09/15 09:16:42;;;;;;;9.32;4.45;;;22.60;58.30;;;;;;5027830;28;20083;-52
2023/09/15 09:19:08;;;;;;;12.40;4.60;;;22.60;58.10;;;;;;5028502;28;20389;-53
2023/09/15 09:21:35;;;;;;;11.65;4.80;;;22.70;57.60;;;;;;5028925;28;20036;-50
2023/09/15 09:24:01;;;;;;;9.38;4.25;;;22.70;57.20;;;;;;5028824;28;20044;-53
2023/09/15 09:26:27;;;;;;;9.50;4.38;;;22.70;57.50;;;;;;5028543;28;20072;-54
2023/09/15 09:28:54;;;;;;;8.40;3.90;;;22.70;56.70;;;;;;5028148;28;20104;-51
2023/09/15 09:31:24;;;;;;;10.23;4.57;;;22.70;56.50;;;;;;5027901;28;20029;-50
2023/09/15 09:33:50;;;;;;;10.32;4.13;;;22.70;56.20;;;;;;5045931;28;20637;-50
2023/09/15 09:36:16;;;;;;;10.55;4.32;;;22.70;56.80;;;;;;5029780;28;20103;-47
2023/09/15 09:38:44;;;;;;;9.82;4.20;;;22.70;57.10;;;;;;5030486;28;20101;-53
2023/09/15 09:41:11;;;;;;;10.95;4.25;;;22.70;56.90;;;;;;5003570;28;20021;-50
2023/09/15 09:43:42;;;;;;;11.52;4.57;;;22.70;57.00;;;;;;5037875;28;20052;-49
2023/09/15 09:46:10;;;;;;;8.63;4.30;;;22.70;56.70;;;;;;5028119;28;20032;-48
2023/09/15 09:48:37;;;;;;;10.27;4.15;;;22.70;55.60;;;;;;5027313;28;20021;-51
2023/09/15 09:51:04;;;;;;;8.95;4.00;;;22.70;56.10;;;;;;5023009;28;20105;-57
2023/09/15 09:53:33;;;;;;;7.53;4.03;;;22.60;56.20;;;;;;5030266;28;20508;-56
2023/09/15 09:56:01;;;;;;;8.98;3.95;;;22.60;55.70;;;;;;5031892;28;20041;-54
2023/09/15 09:58:27;;;;;;;11.10;3.78;;;22.70;56.30;;;;;;5032107;28;20032;-56
2023/09/15 10:00:53;;;;;;;9.07;3.70;;;22.70;56.90;;;;;;5031099;28;20021;-53
2023/09/15 10:03:21;;;;;;;8.05;3.30;;;22.70;56.50;;;;;;5028352;28;20037;-55
2023/09/15 10:05:48;;;;;;;7.28;3.00;;;22.50;54.60;;;;;;5029694;28;20052;-53
2023/09/15 10:08:15;;;;;;;9.70;3.80;;;22.50;55.00;;;;;;5032065;28;20025;-53
2023/09/15 10:10:44;;;;;;;10.65;3.45;;;22.60;55.20;;;;;;5029111;28;20030;-51
2023/09/15 10:13:19;;;;;;;9.40;3.90;;;22.60;54.20;;;;;;5030218;28;20030;-53
2023/09/15 10:15:45;;;;;;;9.40;4.13;;;22.70;54.10;;;;;;5031624;28;20451;-56
2023/09/15 10:18:13;;;;;;;9.60;3.85;;;22.70;54.00;;;;;;5030815;28;20029;-55
2023/09/15 10:20:41;;;;;;;8.27;3.67;;;22.80;54.40;;;;;;5030443;28;20021;-54
2023/09/15 10:23:07;;;;;;;11.65;4.10;;;22.90;54.60;;;;;;5031438;28;20032;-53
2023/09/15 10:25:44;;;;;;;9.32;4.22;;;22.90;54.70;;;;;;5031142;28;20025;-52
2023/09/15 10:28:11;;;;;;;14.60;5.28;;;22.90;55.30;;;;;;5031880;28;20026;-55
2023/09/15 10:30:40;;;;;;;8.18;3.72;;;22.90;55.00;;;;;;5031233;28;20568;-52
2023/09/15 10:33:08;;;;;;;11.63;4.70;;;23.00;55.10;;;;;;5030593;28;20021;-54
2023/09/15 10:35:34;;;;;;;14.82;4.35;;;23.00;54.80;;;;;;5030757;28;20055;-54
2023/09/15 10:38:04;;;;;;;10.80;4.30;;;23.00;54.90;;;;;;5023686;28;20112;-54
2023/09/15 10:40:46;;;;;;;10.95;4.38;;;23.00;55.10;;;;;;5031242;28;20109;-53
2023/09/15 10:43:12;;;;;;;10.60;4.18;;;23.00;55.30;;;;;;5015061;28;20030;-52
2023/09/15 10:45:38;;;;;;;11.00;4.80;;;22.90;55.30;;;;;;5031618;28;20028;-51
2023/09/15 10:48:04;;;;;;;12.77;4.05;;;23.00;55.50;;;;;;5030404;28;20068;-54
2023/09/15 10:50:36;;;;;;;10.23;4.15;;;22.90;55.30;;;;;;5030606;28;20136;-53
2023/09/15 10:53:07;;;;;;;8.32;3.95;;;22.90;55.40;;;;;;5030798;28;20059;-54
2023/09/15 10:55:33;;;;;;;8.65;3.75;;;22.90;55.40;;;;;;5013072;28;20017;-52
2023/09/15 10:58:00;;;;;;;9.15;3.85;;;22.90;55.40;;;;;;5031283;28;20461;-54
2023/09/15 11:00:26;;;;;;;8.52;3.60;;;22.90;55.60;;;;;;5026982;28;20024;-54
2023/09/15 11:02:52;;;;;;;8.48;4.05;;;22.90;55.60;;;;;;5030159;28;20113;-51
2023/09/15 11:05:19;;;;;;;8.98;3.90;;;22.90;55.10;;;;;;5030386;28;20100;-53
2023/09/15 11:07:46;;;;;;;10.10;3.70;;;22.90;55.30;;;;;;5026613;28;20034;-51
2023/09/15 11:10:12;;;;;;;9.77;3.80;;;22.90;55.40;;;;;;5023020;28;20507;-54
2023/09/15 11:12:38;;;;;;;11.43;3.80;;;22.90;55.70;;;;;;5029644;28;20034;-52
2023/09/15 11:15:04;;;;;;;13.20;4.75;;;22.90;56.10;;;;;;5030508;28;20052;-53
2023/09/15 11:17:31;;;;;;;9.55;4.30;;;22.90;56.10;;;;;;5030217;28;20060;-51
2023/09/15 11:19:59;;;;;;;18.20;4.38;;;22.90;56.50;;;;;;5030641;28;20072;-49
2023/09/15 11:22:26;;;;;;;15.02;4.63;;;23.00;56.60;;;;;;5029422;28;20140;-52
2023/09/15 11:24:52;;;;;;;12.10;4.32;;;23.00;56.50;;;;;;5026296;28;20566;-51
2023/09/15 11:27:18;;;;;;;17.67;4.82;;;23.00;56.80;;;;;;5029754;28;20393;-54
2023/09/15 11:29:44;;;;;;;16.83;5.05;;;23.00;56.70;;;;;;5030590;28;20021;-51
2023/09/15 11:32:09;;;;;;;13.52;4.53;;;23.10;57.00;;;;;;5030145;28;20032;-50
2023/09/15 11:34:47;;;;;;;17.10;6.38;;;23.10;57.60;;;;;;5030049;28;20028;-51
2023/09/15 11:37:13;;;;;;;14.68;5.03;;;23.00;58.30;;;;;;4975695;28;20043;-55
2023/09/15 11:39:39;;;;;;;13.15;4.30;;;23.20;59.30;;;;;;4971180;28;20433;-52
2023/09/15 11:42:11;;;;;;;12.20;4.30;;;23.20;57.80;;;;;;4971007;28;20513;-55
2023/09/15 11:44:37;;;;;;;12.27;4.65;;;23.20;58.30;;;;;;4971564;28;20019;-50
2023/09/15 11:47:05;;;;;;;11.57;4.50;;;23.20;58.40;;;;;;4989735;28;20026;-51
2023/09/15 11:49:31;;;;;;;12.55;4.50;;;23.10;58.40;;;;;;4987445;28;20124;-55
2023/09/15 11:51:57;;;;;;;15.55;4.78;;;23.20;58.50;;;;;;4989225;28;20026;-53
2023/09/15 11:54:25;;;;;;;19.80;4.95;;;23.10;58.50;;;;;;4989642;28;20402;-51
2023/09/15 11:56:52;;;;;;;22.63;4.57;;;23.10;58.50;;;;;;4992500;28;20068;-52
2023/09/15 11:59:20;;;;;;;17.20;4.50;;;23.10;58.30;;;;;;4992661;28;20064;-49
2023/09/15 12:01:48;;;;;;;11.23;4.22;;;23.20;58.50;;;;;;4992656;28;20030;-54
2023/09/15 12:04:14;;;;;;;16.42;4.43;;;23.20;58.40;;;;;;4994522;28;20062;-53
2023/09/15 12:06:42;;;;;;;10.00;4.00;;;23.10;58.70;;;;;;4997615;28;20030;-53
2023/09/15 12:09:10;;;;;;;16.38;4.38;;;23.10;57.10;;;;;;4991153;28;20041;-51
2023/09/15 12:11:41;;;;;;;16.67;4.85;;;23.00;57.80;;;;;;4978706;28;20045;-55
2023/09/15 12:14:07;;;;;;;14.90;4.75;;;23.00;56.50;;;;;;4990638;28;20030;-57
2023/09/15 12:16:33;;;;;;;19.23;4.40;;;23.00;57.10;;;;;;4961744;28;20373;-56
2023/09/15 12:19:00;;;;;;;17.88;5.13;;;23.00;56.20;;;;;;4989535;28;20142;-54
2023/09/15 12:21:28;;;;;;;11.10;4.25;;;23.00;56.80;;;;;;4989265;28;20035;-55
2023/09/15 12:23:55;;;;;;;10.85;4.05;;;22.90;56.10;;;;;;4990881;28;20300;-51
2023/09/15 12:26:24;;;;;;;8.52;3.05;;;22.90;56.20;;;;;;4990537;28;20018;-54
2023/09/15 12:28:53;;;;;;;10.35;3.40;;;22.90;56.10;;;;;;4989235;28;20029;-54
2023/09/15 12:31:20;;;;;;;7.03;3.50;;;22.80;55.30;;;;;;4990374;28;20030;-52
2023/09/15 12:33:53;;;;;;;9.38;3.58;;;22.90;55.20;;;;;;4990655;28;20037;-52
2023/09/15 12:36:20;;;;;;;8.13;3.35;;;22.90;55.20;;;;;;4990575;28;20022;-51
2023/09/15 12:38:46;;;;;;;8.60;3.17;;;22.90;55.40;;;;;;4990351;28;20616;-55
2023/09/15 12:41:13;;;;;;;14.93;3.90;;;22.90;55.40;;;;;;4989720;28;20105;-53